sensor_id;sensor_type;location;lat;lon;timestamp;pressure;altitude;pressure_sealevel;temperature;humidity
8360;BME280;4217;48.762;11.428;2022-12-13T00:09:06;97071.91;;;-1.95;63.72
8360;BME280;4217;48.762;11.428;2022-12-13T00:19:07;97050.72;;;-1.82;63.97
8360;BME280;4217;48.762;11.428;2022-12-13T00:29:09;97059.66;;;-1.41;63.12
8360;BME280;4217;48.762;11.428;2022-12-13T00:39:12;97057.16;;;-1.05;62.65
8360;BME280;4217;48.762;11.428;2022-12-13T00:49:14;97058.50;;;-0.94;62.27
8360;BME280;4217;48.762;11.428;2022-12-13T00:59:16;97048.81;;;-1.07;62.22
8360;BME280;4217;48.762;11.428;2022-12-13T01:09:20;97028.72;;;-1.41;64.10
8360;BME280;4217;48.762;11.428;2022-12-13T01:19:23;97038.41;;;-1.13;63.43
8360;BME280;4217;48.762;11.428;2022-12-13T01:29:25;97027.00;;;-1.04;63.99
8360;BME280;4217;48.762;11.428;2022-12-13T01:39:27;97019.41;;;-0.91;64.39
8360;BME280;4217;48.762;11.428;2022-12-13T01:49:30;97013.25;;;-0.75;64.20
8360;BME280;4217;48.762;11.428;2022-12-13T01:59:33;97010.69;;;-0.54;63.31
8360;BME280;4217;48.762;11.428;2022-12-13T02:09:37;97007.03;;;-0.81;63.55
8360;BME280;4217;48.762;11.428;2022-12-13T02:30:13;97006.91;;;-1.24;63.86
8360;BME280;4217;48.762;11.428;2022-12-13T02:40:30;96998.09;;;-1.00;63.63
8360;BME280;4217;48.762;11.428;2022-12-13T02:50:33;96977.81;;;-1.03;63.68
8360;BME280;4217;48.762;11.428;2022-12-13T03:00:50;96966.75;;;-0.97;63.31
8360;BME280;4217;48.762;11.428;2022-12-13T03:11:10;96955.47;;;-0.74;63.27
8360;BME280;4217;48.762;11.428;2022-12-13T03:21:13;96950.53;;;-1.12;63.90
8360;BME280;4217;48.762;11.428;2022-12-13T03:31:15;96949.00;;;-0.85;63.01
8360;BME280;4217;48.762;11.428;2022-12-13T03:41:22;96949.94;;;-0.93;63.68
8360;BME280;4217;48.762;11.428;2022-12-13T03:51:24;96931.31;;;-1.24;64.00
8360;BME280;4217;48.762;11.428;2022-12-13T04:01:26;96924.53;;;-1.46;64.94
8360;BME280;4217;48.762;11.428;2022-12-13T04:11:28;96938.41;;;-1.62;65.31
8360;BME280;4217;48.762;11.428;2022-12-13T04:21:48;96923.50;;;-0.95;63.37
8360;BME280;4217;48.762;11.428;2022-12-13T04:31:50;96937.41;;;-1.46;63.67
8360;BME280;4217;48.762;11.428;2022-12-13T04:41:51;96925.19;;;-2.41;64.17
8360;BME280;4217;48.762;11.428;2022-12-13T04:51:53;96915.16;;;-2.73;64.07
8360;BME280;4217;48.762;11.428;2022-12-13T05:02:02;96902.22;;;-2.88;64.79
8360;BME280;4217;48.762;11.428;2022-12-13T05:12:05;96913.22;;;-2.94;65.31
8360;BME280;4217;48.762;11.428;2022-12-13T05:22:24;96920.34;;;-2.58;65.51
8360;BME280;4217;48.762;11.428;2022-12-13T05:32:25;96907.91;;;-2.32;64.73
8360;BME280;4217;48.762;11.428;2022-12-13T05:42:27;96917.78;;;-1.91;64.33
8360;BME280;4217;48.762;11.428;2022-12-13T05:52:28;96912.94;;;-1.50;63.58
8360;BME280;4217;48.762;11.428;2022-12-13T06:02:34;96905.53;;;-1.75;63.58
8360;BME280;4217;48.762;11.428;2022-12-13T06:12:37;96903.56;;;-1.87;63.63
8360;BME280;4217;48.762;11.428;2022-12-13T06:22:43;96908.34;;;-1.70;63.11
8360;BME280;4217;48.762;11.428;2022-12-13T06:32:48;96912.22;;;-1.44;62.77
8360;BME280;4217;48.762;11.428;2022-12-13T06:42:50;96908.63;;;-1.79;63.36
8360;BME280;4217;48.762;11.428;2022-12-13T06:52:52;96915.81;;;-2.19;64.12
8360;BME280;4217;48.762;11.428;2022-12-13T07:02:54;96912.00;;;-2.08;63.81
8360;BME280;4217;48.762;11.428;2022-12-13T07:12:57;96905.28;;;-2.47;64.98
8360;BME280;4217;48.762;11.428;2022-12-13T07:22:58;96899.47;;;-2.26;64.27
8360;BME280;4217;48.762;11.428;2022-12-13T07:33:01;96902.84;;;-1.81;62.89
8360;BME280;4217;48.762;11.428;2022-12-13T07:43:04;96921.47;;;-1.35;62.63
8360;BME280;4217;48.762;11.428;2022-12-13T07:53:07;96944.53;;;-1.48;62.24
8360;BME280;4217;48.762;11.428;2022-12-13T08:03:08;96933.81;;;-0.95;61.77
8360;BME280;4217;48.762;11.428;2022-12-13T08:13:26;96929.88;;;-0.27;60.84
8360;BME280;4217;48.762;11.428;2022-12-13T08:23:30;96907.22;;;-0.95;60.89
8360;BME280;4217;48.762;11.428;2022-12-13T08:33:35;96926.34;;;-0.90;60.48
8360;BME280;4217;48.762;11.428;2022-12-13T08:43:36;96932.19;;;-0.60;60.41
8360;BME280;4217;48.762;11.428;2022-12-13T08:53:38;96948.81;;;-0.84;60.97
8360;BME280;4217;48.762;11.428;2022-12-13T09:03:41;96948.59;;;-0.46;60.61
8360;BME280;4217;48.762;11.428;2022-12-13T09:13:42;96936.34;;;3.59;54.90
8360;BME280;4217;48.762;11.428;2022-12-13T09:23:45;96913.03;;;6.46;46.49
8360;BME280;4217;48.762;11.428;2022-12-13T09:33:47;96917.25;;;6.24;44.67
8360;BME280;4217;48.762;11.428;2022-12-13T09:43:53;96908.22;;;7.35;40.95
8360;BME280;4217;48.762;11.428;2022-12-13T09:54:01;96884.63;;;9.00;37.78
8360;BME280;4217;48.762;11.428;2022-12-13T10:04:08;96870.69;;;7.12;39.58
8360;BME280;4217;48.762;11.428;2022-12-13T10:14:17;96865.81;;;7.83;39.11
8360;BME280;4217;48.762;11.428;2022-12-13T10:24:24;96851.41;;;7.80;39.19
8360;BME280;4217;48.762;11.428;2022-12-13T10:34:36;96854.41;;;7.39;38.94
8360;BME280;4217;48.762;11.428;2022-12-13T10:44:40;96845.78;;;8.10;37.64
8360;BME280;4217;48.762;11.428;2022-12-13T10:54:42;96852.09;;;6.97;38.66
8360;BME280;4217;48.762;11.428;2022-12-13T11:04:48;96832.97;;;7.42;37.77
8360;BME280;4217;48.762;11.428;2022-12-13T11:14:54;96837.28;;;5.94;39.62
8360;BME280;4217;48.762;11.428;2022-12-13T11:25:00;96838.41;;;5.10;41.02
8360;BME280;4217;48.762;11.428;2022-12-13T11:35:19;96821.31;;;4.55;42.41
8360;BME280;4217;48.762;11.428;2022-12-13T11:45:32;96817.50;;;3.16;45.09
8360;BME280;4217;48.762;11.428;2022-12-13T11:55:47;96817.56;;;2.40;47.93
8360;BME280;4217;48.762;11.428;2022-12-13T12:05:54;96799.69;;;2.19;49.17
8360;BME280;4217;48.762;11.428;2022-12-13T12:16:10;96794.00;;;1.91;49.87
8360;BME280;4217;48.762;11.428;2022-12-13T12:26:17;96802.88;;;2.21;49.48
8360;BME280;4217;48.762;11.428;2022-12-13T12:36:35;96797.22;;;1.80;50.34
8360;BME280;4217;48.762;11.428;2022-12-13T13:07:57;96783.47;;;1.79;51.35
8360;BME280;4217;48.762;11.428;2022-12-13T13:17:59;96797.69;;;1.64;51.70
8360;BME280;4217;48.762;11.428;2022-12-13T13:28:13;96805.66;;;1.42;52.41
8360;BME280;4217;48.762;11.428;2022-12-13T14:29:23;96793.91;;;1.00;53.89
8360;BME280;4217;48.762;11.428;2022-12-13T14:39:28;96797.47;;;0.79;53.67
8360;BME280;4217;48.762;11.428;2022-12-13T14:49:37;96805.25;;;0.93;53.61
8360;BME280;4217;48.762;11.428;2022-12-13T14:59:44;96798.09;;;0.82;53.19
8360;BME280;4217;48.762;11.428;2022-12-13T15:09:56;96809.13;;;0.36;54.20
8360;BME280;4217;48.762;11.428;2022-12-13T15:20:00;96803.56;;;0.32;54.30
8360;BME280;4217;48.762;11.428;2022-12-13T15:30:12;96783.25;;;0.36;54.56
8360;BME280;4217;48.762;11.428;2022-12-13T15:40:14;96794.19;;;0.31;54.77
8360;BME280;4217;48.762;11.428;2022-12-13T15:50:38;96800.34;;;0.24;55.24
8360;BME280;4217;48.762;11.428;2022-12-13T16:00:47;96806.16;;;0.39;54.53
8360;BME280;4217;48.762;11.428;2022-12-13T16:10:51;96794.44;;;0.50;54.28
8360;BME280;4217;48.762;11.428;2022-12-13T16:20:53;96792.75;;;0.22;54.92
8360;BME280;4217;48.762;11.428;2022-12-13T16:31:01;96792.16;;;0.20;54.85
8360;BME280;4217;48.762;11.428;2022-12-13T16:41:04;96786.97;;;0.20;55.05
8360;BME280;4217;48.762;11.428;2022-12-13T16:51:09;96780.63;;;0.23;55.08
8360;BME280;4217;48.762;11.428;2022-12-13T17:01:13;96750.56;;;0.15;55.16
8360;BME280;4217;48.762;11.428;2022-12-13T17:11:15;96754.50;;;-0.02;55.25
8360;BME280;4217;48.762;11.428;2022-12-13T17:21:18;96735.44;;;-0.01;56.06
8360;BME280;4217;48.762;11.428;2022-12-13T17:31:20;96724.84;;;-0.06;56.13
8360;BME280;4217;48.762;11.428;2022-12-13T17:41:22;96711.19;;;0.00;55.93
8360;BME280;4217;48.762;11.428;2022-12-13T17:51:24;96714.16;;;0.04;55.09
8360;BME280;4217;48.762;11.428;2022-12-13T18:01:25;96735.41;;;-0.08;55.29
8360;BME280;4217;48.762;11.428;2022-12-13T18:11:27;96725.50;;;0.03;55.18
8360;BME280;4217;48.762;11.428;2022-12-13T18:21:34;96723.31;;;-0.01;54.92
8360;BME280;4217;48.762;11.428;2022-12-13T18:31:38;96739.50;;;-0.26;55.65
8360;BME280;4217;48.762;11.428;2022-12-13T18:41:40;96727.09;;;0.04;55.09
8360;BME280;4217;48.762;11.428;2022-12-13T18:51:41;96724.94;;;0.20;54.85
8360;BME280;4217;48.762;11.428;2022-12-13T19:01:43;96721.53;;;0.13;55.05
8360;BME280;4217;48.762;11.428;2022-12-13T19:11:44;96708.63;;;0.20;54.46
8360;BME280;4217;48.762;11.428;2022-12-13T19:21:46;96702.22;;;0.03;55.20
8360;BME280;4217;48.762;11.428;2022-12-13T19:31:48;96697.00;;;-0.17;55.76
8360;BME280;4217;48.762;11.428;2022-12-13T19:41:50;96704.00;;;-0.05;55.63
8360;BME280;4217;48.762;11.428;2022-12-13T19:51:51;96664.44;;;0.02;55.30
8360;BME280;4217;48.762;11.428;2022-12-13T20:01:53;96666.38;;;-0.27;56.71
8360;BME280;4217;48.762;11.428;2022-12-13T20:11:55;96675.34;;;-0.16;56.39
8360;BME280;4217;48.762;11.428;2022-12-13T20:21:58;96637.44;;;0.04;55.52
8360;BME280;4217;48.762;11.428;2022-12-13T20:31:59;96622.09;;;-0.04;56.10
8360;BME280;4217;48.762;11.428;2022-12-13T20:42:02;96603.31;;;-0.39;57.20
8360;BME280;4217;48.762;11.428;2022-12-13T20:52:05;96603.28;;;-0.52;57.51
8360;BME280;4217;48.762;11.428;2022-12-13T21:02:09;96594.63;;;-0.92;58.26
8360;BME280;4217;48.762;11.428;2022-12-13T21:12:10;96579.16;;;-0.86;58.56
8360;BME280;4217;48.762;11.428;2022-12-13T21:22:12;96579.59;;;-0.69;58.26
8360;BME280;4217;48.762;11.428;2022-12-13T21:32:13;96547.66;;;-0.61;58.37
8360;BME280;4217;48.762;11.428;2022-12-13T21:42:15;96549.69;;;-0.37;58.09
8360;BME280;4217;48.762;11.428;2022-12-13T21:52:16;96552.94;;;0.11;56.75
8360;BME280;4217;48.762;11.428;2022-12-13T22:02:18;96558.50;;;0.21;56.30
8360;BME280;4217;48.762;11.428;2022-12-13T22:12:23;96545.19;;;0.11;56.93
8360;BME280;4217;48.762;11.428;2022-12-13T22:22:26;96527.88;;;0.12;56.75
8360;BME280;4217;48.762;11.428;2022-12-13T22:32:29;96529.69;;;0.05;57.00
8360;BME280;4217;48.762;11.428;2022-12-13T22:42:31;96527.88;;;-0.02;56.86
8360;BME280;4217;48.762;11.428;2022-12-13T22:52:32;96504.44;;;-0.20;56.92
8360;BME280;4217;48.762;11.428;2022-12-13T23:02:35;96505.81;;;-0.11;57.37
8360;BME280;4217;48.762;11.428;2022-12-13T23:12:37;96504.44;;;-0.07;57.21
8360;BME280;4217;48.762;11.428;2022-12-13T23:22:57;96471.63;;;-0.19;57.36
8360;BME280;4217;48.762;11.428;2022-12-13T23:33:00;96428.31;;;-0.24;57.86
8360;BME280;4217;48.762;11.428;2022-12-13T23:43:02;96450.56;;;-0.23;57.75
8360;BME280;4217;48.762;11.428;2022-12-13T23:53:04;96440.81;;;-0.01;57.28
